Time;durP1;ratioP1;P1;durP2;ratioP2;P2;SDS_P1;SDS_P2;PMS_P1;PMS_P2;Temp;Humidity;BMP_temperature;BMP_pressure;BME280_temperature;BME280_humidity;BME280_pressure;Samples;Min_cycle;Max_cycle;Signal;HPM_P1;HPM_P2
2022/04/22 00:00:47;;;;;;;0.60;0.20;;;14.50;96.70;;;;;;5084831;28;20044;-79
2022/04/22 00:03:16;;;;;;;0.40;0.10;;;14.40;96.70;;;;;;5084142;28;20063;-79
2022/04/22 00:05:44;;;;;;;0.52;0.30;;;14.40;96.70;;;;;;5084038;28;20551;-78
2022/04/22 00:08:13;;;;;;;1.05;0.20;;;14.40;96.70;;;;;;5085164;28;20044;-78
2022/04/22 00:11:29;;;;;;;0.13;0.10;;;14.40;96.70;;;;;;5083076;28;20050;-79
2022/04/22 00:13:30;;;;;;;0.68;0.10;;;14.40;96.70;;;;;;5084426;28;20689;-79
2022/04/22 00:15:59;;;;;;;0.75;0.10;;;14.50;96.70;;;;;;5078656;28;20487;-79
2022/04/22 00:18:27;;;;;;;0.40;0.10;;;14.50;96.70;;;;;;5086318;28;20682;-79
2022/04/22 00:20:55;;;;;;;0.45;0.10;;;14.50;96.70;;;;;;5084417;28;20138;-79
2022/04/22 00:23:24;;;;;;;1.17;0.10;;;14.50;96.70;;;;;;5087515;28;20116;-78
2022/04/22 00:25:53;;;;;;;0.40;0.10;;;14.50;96.70;;;;;;5083753;28;20044;-79
2022/04/22 00:28:21;;;;;;;1.40;0.15;;;14.40;96.70;;;;;;5069424;28;20047;-82
2022/04/22 00:30:51;;;;;;;1.48;0.10;;;14.50;96.70;;;;;;5082789;28;20062;-81
2022/04/22 00:33:19;;;;;;;1.85;0.35;;;14.50;96.70;;;;;;5085137;28;20036;-81
2022/04/22 00:35:47;;;;;;;1.05;0.20;;;14.50;96.70;;;;;;5065992;28;20570;-81
2022/04/22 00:38:15;;;;;;;2.33;0.50;;;14.50;96.70;;;;;;5085111;28;20074;-81
2022/04/22 00:40:43;;;;;;;0.52;0.20;;;14.50;96.70;;;;;;5079800;28;20075;-81
2022/04/22 00:43:16;;;;;;;0.85;0.10;;;14.50;96.70;;;;;;5082488;28;20059;-81
2022/04/22 00:45:44;;;;;;;0.77;0.20;;;14.50;96.70;;;;;;5082582;28;20961;-82
2022/04/22 00:48:14;;;;;;;0.90;0.17;;;14.60;96.70;;;;;;5084274;28;20477;-81
2022/04/22 00:50:43;;;;;;;2.15;0.95;;;14.50;96.70;;;;;;5078123;28;20044;-81
2022/04/22 00:53:11;;;;;;;4.78;0.80;;;14.50;96.70;;;;;;5061515;28;20035;-81
2022/04/22 00:55:42;;;;;;;3.28;0.30;;;14.50;96.70;;;;;;5082729;28;20044;-81
2022/04/22 00:58:10;;;;;;;1.88;0.38;;;14.50;96.70;;;;;;5082744;28;20040;-81
2022/04/22 01:00:39;;;;;;;1.75;0.50;;;14.50;96.70;;;;;;5081725;28;20550;-81
2022/04/22 01:03:08;;;;;;;0.95;0.52;;;14.40;96.70;;;;;;5083126;28;20044;-81
2022/04/22 01:11:14;;;;;;;2.08;0.20;;;14.40;96.70;;;;;;5082763;28;20488;-82
2022/04/22 01:13:43;;;;;;;1.60;0.30;;;14.40;96.70;;;;;;5081321;28;20032;-81
2022/04/22 01:16:11;;;;;;;0.82;0.20;;;14.30;96.70;;;;;;5064607;28;20589;-82
2022/04/22 01:18:39;;;;;;;1.42;0.20;;;14.30;96.70;;;;;;5065112;28;20148;-82
2022/04/22 01:21:08;;;;;;;1.15;0.20;;;14.20;96.70;;;;;;5081141;28;20043;-82
2022/04/22 01:23:36;;;;;;;0.88;0.28;;;14.20;96.70;;;;;;5081346;28;20079;-81
2022/04/22 01:26:05;;;;;;;1.75;0.30;;;14.20;96.70;;;;;;5081849;28;20040;-81
2022/04/22 01:28:34;;;;;;;0.43;0.20;;;14.20;96.70;;;;;;5064675;28;20066;-81
2022/04/22 01:31:02;;;;;;;0.95;0.20;;;14.20;96.70;;;;;;5064063;28;20888;-80
2022/04/22 01:33:30;;;;;;;1.35;0.40;;;14.20;96.70;;;;;;5078117;28;20044;-82
2022/04/22 01:35:58;;;;;;;0.80;0.30;;;14.20;96.70;;;;;;5080744;28;20078;-81
2022/04/22 01:38:27;;;;;;;0.20;0.10;;;14.20;96.70;;;;;;5080820;28;20513;-81
2022/04/22 01:40:55;;;;;;;0.75;0.20;;;14.20;96.70;;;;;;5080757;28;20051;-81
2022/04/22 01:43:23;;;;;;;0.75;0.20;;;14.20;96.70;;;;;;5081198;28;20048;-81
2022/04/22 01:45:52;;;;;;;1.38;0.30;;;14.20;96.70;;;;;;5060584;28;20041;-81
2022/04/22 01:48:21;;;;;;;1.73;0.20;;;14.20;96.70;;;;;;5081697;28;20052;-81
2022/04/22 01:50:49;;;;;;;0.93;0.20;;;14.10;96.70;;;;;;5080614;28;20051;-82
2022/04/22 01:53:17;;;;;;;1.67;0.38;;;14.00;96.70;;;;;;5081143;28;20082;-81
2022/04/22 01:55:47;;;;;;;1.05;0.30;;;14.00;96.70;;;;;;5052552;28;20045;-82
2022/04/22 01:58:15;;;;;;;1.85;0.30;;;14.00;96.70;;;;;;5081467;28;20048;-82
2022/04/22 02:00:42;;;;;;;0.90;0.15;;;14.00;96.70;;;;;;5080930;28;20083;-81
2022/04/22 02:03:10;;;;;;;0.38;0.10;;;14.00;96.70;;;;;;5081365;28;20044;-81
2022/04/22 02:05:40;;;;;;;0.80;0.10;;;14.00;96.70;;;;;;5084902;28;20501;-81
2022/04/22 02:08:09;;;;;;;0.30;0.10;;;14.00;96.70;;;;;;5086253;28;20477;-81
2022/04/22 02:10:59;;;;;;;0.85;0.22;;;13.90;96.70;;;;;;5079495;28;20040;-81
2022/04/22 02:13:26;;;;;;;0.70;0.10;;;13.90;96.70;;;;;;5082945;28;20417;-81
2022/04/22 02:15:54;;;;;;;0.20;0.00;;;13.90;96.70;;;;;;5085253;28;20164;-82
2022/04/22 02:18:22;;;;;;;1.17;0.10;;;13.80;96.70;;;;;;5088829;28;20307;-81
2022/04/22 02:20:50;;;;;;;1.83;0.17;;;13.80;96.70;;;;;;5068016;28;20117;-81
2022/04/22 02:23:18;;;;;;;0.50;0.15;;;13.70;96.70;;;;;;5073041;28;20040;-81
2022/04/22 02:25:48;;;;;;;1.08;0.10;;;13.80;96.70;;;;;;5082094;28;20451;-81
2022/04/22 02:28:34;;;;;;;0.68;0.20;;;13.80;96.70;;;;;;5088244;28;20108;-82
2022/04/22 02:31:05;;;;;;;1.48;0.20;;;13.80;96.70;;;;;;5068009;28;20056;-82
2022/04/22 02:33:34;;;;;;;0.30;0.10;;;13.70;96.70;;;;;;5089980;28;21160;-82
2022/04/22 02:36:03;;;;;;;1.38;0.15;;;13.70;96.70;;;;;;5086334;28;20532;-82
2022/04/22 02:38:32;;;;;;;0.50;0.10;;;13.70;96.70;;;;;;5085140;28;20059;-81
2022/04/22 02:46:36;;;;;;;0.10;0.00;;;13.60;96.70;;;;;;5083758;28;20413;-81
2022/04/22 02:49:04;;;;;;;0.20;0.00;;;13.60;96.70;;;;;;5084667;28;20044;-81
2022/04/22 02:51:32;;;;;;;0.20;0.00;;;13.60;96.70;;;;;;5083536;28;20043;-81
2022/04/22 02:54:00;;;;;;;0.45;0.00;;;13.50;96.70;;;;;;5085315;28;20553;-82
2022/04/22 02:56:31;;;;;;;0.30;0.00;;;13.50;96.70;;;;;;5082594;28;20526;-82
2022/04/22 02:59:00;;;;;;;0.40;0.10;;;13.40;96.70;;;;;;5085234;28;20043;-82
2022/04/22 03:01:28;;;;;;;0.50;0.00;;;13.50;96.70;;;;;;5083925;28;20787;-81
2022/04/22 03:03:56;;;;;;;0.38;0.10;;;13.50;96.70;;;;;;5085611;28;20109;-81
2022/04/22 03:06:26;;;;;;;0.70;0.10;;;13.60;96.70;;;;;;5086468;28;20046;-81
2022/04/22 03:08:53;;;;;;;0.00;0.00;;;13.60;96.70;;;;;;5085251;28;20048;-81
2022/04/22 03:11:21;;;;;;;0.95;0.00;;;13.60;96.70;;;;;;5066050;28;20043;-81
2022/04/22 03:13:51;;;;;;;0.20;0.05;;;13.60;96.70;;;;;;5066487;28;20048;-81
2022/04/22 03:16:20;;;;;;;0.30;0.00;;;13.60;96.70;;;;;;5083133;28;20047;-81
2022/04/22 03:18:48;;;;;;;0.63;0.03;;;13.60;96.70;;;;;;5084729;28;20127;-81
2022/04/22 03:21:16;;;;;;;0.20;0.00;;;13.60;96.70;;;;;;5084587;28;20529;-81
2022/04/22 03:23:44;;;;;;;0.93;0.10;;;13.50;96.70;;;;;;5083352;28;20071;-81
2022/04/22 03:26:12;;;;;;;0.17;0.00;;;13.50;96.70;;;;;;5084763;28;20123;-81
2022/04/22 03:28:40;;;;;;;1.17;0.00;;;13.50;96.70;;;;;;5067305;28;20048;-81
2022/04/22 03:31:09;;;;;;;0.30;0.10;;;13.40;96.70;;;;;;5066243;28;20590;-82
2022/04/22 03:33:37;;;;;;;0.08;0.00;;;13.40;96.70;;;;;;5083971;28;20044;-81
2022/04/22 03:36:05;;;;;;;0.10;0.00;;;13.30;96.70;;;;;;5084430;28;20041;-81
2022/04/22 03:38:33;;;;;;;0.73;0.10;;;13.30;96.70;;;;;;5084682;28;20055;-82
2022/04/22 03:41:02;;;;;;;4.75;0.20;;;13.20;96.70;;;;;;5082382;28;20047;-79
2022/04/22 03:43:30;;;;;;;0.10;0.00;;;13.20;96.70;;;;;;5083258;28;20552;-80
2022/04/22 03:45:59;;;;;;;0.85;0.00;;;13.00;96.70;;;;;;5083952;28;20043;-79
2022/04/22 03:48:29;;;;;;;0.10;0.00;;;13.00;96.70;;;;;;5083588;28;20060;-80
2022/04/22 03:50:57;;;;;;;0.00;0.00;;;12.90;96.70;;;;;;5082711;28;20055;-80
2022/04/22 03:53:24;;;;;;;0.00;0.00;;;12.90;96.70;;;;;;5084482;28;20044;-79
2022/04/22 03:55:53;;;;;;;0.05;0.00;;;12.90;96.70;;;;;;5084216;28;20044;-80
2022/04/22 03:58:20;;;;;;;0.00;0.00;;;12.90;96.70;;;;;;5082833;28;20047;-79
2022/04/22 04:00:50;;;;;;;0.28;0.00;;;12.90;96.70;;;;;;5065675;28;20103;-79
2022/04/22 04:03:20;;;;;;;0.20;0.00;;;13.00;96.70;;;;;;5084535;28;20119;-79
2022/04/22 04:05:51;;;;;;;0.00;0.00;;;13.00;96.70;;;;;;5070673;28;20133;-79
2022/04/22 04:08:20;;;;;;;0.10;0.00;;;13.10;96.70;;;;;;5082386;28;20073;-79
2022/04/22 04:16:22;;;;;;;0.00;0.00;;;13.10;96.70;;;;;;5083013;28;20040;-79
2022/04/22 04:18:50;;;;;;;0.00;0.00;;;13.20;96.70;;;;;;5083893;28;20131;-80
2022/04/22 04:24:07;;;;;;;0.00;0.00;;;13.10;96.70;;;;;;5082008;28;20052;-79
2022/04/22 04:26:37;;;;;;;0.32;0.00;;;13.10;96.70;;;;;;5083306;28;20127;-79
2022/04/22 04:29:05;;;;;;;0.00;0.00;;;13.10;96.70;;;;;;5081216;28;20059;-80
2022/04/22 04:31:33;;;;;;;0.10;0.00;;;13.10;96.70;;;;;;5065635;28;20040;-79
2022/04/22 04:34:01;;;;;;;0.00;0.00;;;13.20;96.70;;;;;;5083132;28;20064;-79
2022/04/22 04:36:32;;;;;;;0.00;0.00;;;13.20;96.70;;;;;;5082086;28;20075;-80
2022/04/22 04:39:01;;;;;;;1.65;0.00;;;13.20;96.70;;;;;;5080108;28;20071;-80
2022/04/22 04:41:29;;;;;;;0.00;0.00;;;13.20;96.70;;;;;;5079019;28;20052;-79
2022/04/22 04:43:57;;;;;;;0.08;0.00;;;13.20;96.70;;;;;;5063900;28;20051;-81
2022/04/22 04:46:25;;;;;;;0.08;0.08;;;13.30;96.70;;;;;;5083964;28;20045;-81
2022/04/22 04:48:56;;;;;;;0.22;0.17;;;13.30;96.70;;;;;;5064529;28;20464;-80
2022/04/22 04:51:24;;;;;;;0.17;0.00;;;13.40;96.70;;;;;;5082159;28;20601;-80
2022/04/22 04:53:53;;;;;;;0.00;0.00;;;13.40;96.70;;;;;;5081324;28;20036;-80
2022/04/22 04:56:21;;;;;;;0.00;0.00;;;13.40;96.70;;;;;;5065177;28;20120;-80
2022/04/22 04:58:49;;;;;;;0.85;0.03;;;13.40;96.70;;;;;;5082396;28;20035;-81
2022/04/22 05:01:23;;;;;;;0.00;0.00;;;13.40;96.70;;;;;;5080439;28;20047;-81
2022/04/22 05:03:51;;;;;;;0.00;0.00;;;13.50;96.70;;;;;;5082020;28;20143;-81
2022/04/22 05:06:19;;;;;;;0.30;0.00;;;13.50;96.70;;;;;;5081280;28;20040;-79
2022/04/22 05:08:47;;;;;;;0.00;0.00;;;13.50;96.70;;;;;;5082014;28;20043;-81
2022/04/22 05:11:17;;;;;;;0.13;0.00;;;13.60;96.70;;;;;;5073021;28;20040;-80
2022/04/22 05:13:45;;;;;;;0.08;0.00;;;13.60;96.70;;;;;;5064910;28;20521;-82
2022/04/22 05:16:13;;;;;;;0.35;0.00;;;13.50;96.70;;;;;;5085225;28;20040;-81
2022/04/22 05:18:41;;;;;;;1.40;0.03;;;13.60;96.70;;;;;;5082246;28;20052;-83
2022/04/22 05:21:09;;;;;;;0.38;0.00;;;13.50;96.70;;;;;;5066496;28;20048;-81
2022/04/22 05:23:37;;;;;;;0.85;0.10;;;13.50;96.70;;;;;;5082096;28;20607;-80
2022/04/22 05:26:05;;;;;;;0.00;0.00;;;13.50;96.70;;;;;;5080827;28;20123;-81
2022/04/22 05:28:34;;;;;;;0.20;0.00;;;13.50;96.70;;;;;;5064893;28;20047;-80
2022/04/22 05:33:51;;;;;;;0.03;0.00;;;13.70;96.70;;;;;;5083562;28;20043;-81
2022/04/22 05:36:19;;;;;;;0.98;0.00;;;13.60;96.70;;;;;;5082126;28;20049;-80
2022/04/22 05:38:47;;;;;;;0.30;0.00;;;13.70;96.70;;;;;;5081500;28;20462;-81
2022/04/22 05:41:15;;;;;;;0.55;0.30;;;13.70;96.70;;;;;;5080883;28;20413;-81
2022/04/22 05:43:45;;;;;;;0.85;0.38;;;13.70;96.70;;;;;;5081545;28;20805;-80
2022/04/22 05:46:13;;;;;;;2.00;0.50;;;13.70;96.70;;;;;;5064383;28;20316;-82
2022/04/22 05:48:42;;;;;;;3.35;0.68;;;13.70;96.70;;;;;;5082056;28;20059;-81
2022/04/22 05:51:10;;;;;;;2.20;0.73;;;13.60;96.70;;;;;;5078994;28;20448;-81
2022/04/22 05:53:44;;;;;;;2.10;0.90;;;13.60;96.70;;;;;;5081584;28;20046;-81
2022/04/22 05:56:12;;;;;;;1.52;0.60;;;13.60;96.70;;;;;;5080816;28;20060;-80
2022/04/22 05:58:40;;;;;;;1.90;0.60;;;13.70;96.70;;;;;;5080360;28;20040;-80
2022/04/22 06:01:09;;;;;;;1.38;0.57;;;13.70;96.70;;;;;;5081296;28;20056;-80
2022/04/22 06:03:38;;;;;;;2.45;0.50;;;13.80;96.70;;;;;;5080834;28;20572;-81
2022/04/22 06:06:07;;;;;;;2.30;0.80;;;13.80;96.70;;;;;;5081375;28;20059;-81
2022/04/22 06:11:22;;;;;;;6.90;2.20;;;13.70;96.70;;;;;;5081571;28;20058;-81
2022/04/22 06:13:50;;;;;;;6.55;1.83;;;13.70;96.70;;;;;;5063383;28;20032;-80
2022/04/22 06:16:20;;;;;;;7.13;2.22;;;13.70;96.70;;;;;;5080951;28;20090;-80
2022/04/22 06:18:48;;;;;;;4.63;1.80;;;13.70;96.70;;;;;;5064130;28;20044;-81
2022/04/22 06:21:17;;;;;;;5.13;1.80;;;13.80;96.70;;;;;;5081517;28;20044;-80
2022/04/22 06:23:46;;;;;;;6.07;2.17;;;13.80;96.70;;;;;;5081484;28;20040;-82
2022/04/22 06:26:14;;;;;;;6.00;2.08;;;13.90;96.70;;;;;;5064564;28;20052;-81
2022/04/22 06:28:42;;;;;;;6.07;2.13;;;13.90;96.70;;;;;;5081377;28;20034;-81
2022/04/22 06:31:10;;;;;;;5.72;1.80;;;13.90;96.70;;;;;;5080721;28;20426;-80
2022/04/22 06:33:41;;;;;;;5.13;1.80;;;13.90;96.70;;;;;;5080487;28;20062;-81
2022/04/22 06:36:13;;;;;;;5.28;1.63;;;14.00;96.70;;;;;;5082893;28;20044;-81
2022/04/22 06:38:45;;;;;;;5.47;1.20;;;14.00;96.70;;;;;;5080009;28;20401;-81
2022/04/22 06:46:47;;;;;;;7.93;1.35;;;14.10;96.70;;;;;;5077621;28;20336;-80
2022/04/22 06:49:17;;;;;;;2.72;1.05;;;14.20;96.70;;;;;;5083397;28;20048;-81
2022/04/22 06:51:46;;;;;;;5.65;1.30;;;14.10;96.70;;;;;;5084081;28;20055;-82
2022/04/22 06:54:15;;;;;;;3.53;1.08;;;14.20;96.70;;;;;;5085209;28;20131;-81
2022/04/22 06:56:45;;;;;;;3.53;1.20;;;14.30;96.70;;;;;;5083497;28;20040;-80
2022/04/22 06:59:15;;;;;;;2.50;0.80;;;14.30;96.70;;;;;;5084260;28;20166;-81
2022/04/22 07:01:44;;;;;;;3.08;0.70;;;14.30;96.70;;;;;;5084908;28;20063;-81
2022/04/22 07:04:12;;;;;;;4.00;0.93;;;14.30;96.70;;;;;;5084799;28;20122;-82
2022/04/22 07:06:43;;;;;;;2.65;0.90;;;14.30;96.70;;;;;;5088825;28;20048;-89
2022/04/22 07:09:11;;;;;;;3.10;0.65;;;14.40;96.70;;;;;;5086879;28;20121;-82
2022/04/22 07:11:41;;;;;;;2.80;0.50;;;14.40;96.70;;;;;;5067449;28;20440;-84
2022/04/22 07:14:10;;;;;;;2.13;0.57;;;14.40;96.70;;;;;;5087690;28;20048;-80
2022/04/22 07:16:43;;;;;;;0.90;0.40;;;14.40;96.70;;;;;;5083477;28;20073;-81
2022/04/22 07:19:12;;;;;;;1.40;0.40;;;14.50;96.70;;;;;;5084568;28;20043;-83
2022/04/22 07:21:43;;;;;;;1.40;0.40;;;14.50;96.70;;;;;;5083299;28;20052;-82
2022/04/22 07:24:12;;;;;;;2.95;0.55;;;14.60;96.70;;;;;;5068448;28;20048;-87
2022/04/22 07:26:43;;;;;;;3.08;0.60;;;14.60;96.70;;;;;;5066061;28;20708;-88
2022/04/22 07:29:13;;;;;;;1.73;0.40;;;14.60;96.70;;;;;;5071845;28;20052;-86
2022/04/22 07:31:42;;;;;;;1.75;0.32;;;14.70;96.70;;;;;;5083166;28;20050;-82
2022/04/22 07:34:10;;;;;;;0.40;0.20;;;14.70;96.70;;;;;;5087350;28;20082;-87
2022/04/22 07:36:39;;;;;;;1.17;0.40;;;14.70;96.70;;;;;;5086146;28;20493;-81
2022/04/22 07:39:11;;;;;;;0.70;0.30;;;14.70;96.70;;;;;;5083845;28;20048;-82
2022/04/22 07:41:40;;;;;;;0.85;0.20;;;14.70;96.70;;;;;;5082365;28;20405;-81
2022/04/22 07:46:59;;;;;;;0.55;0.10;;;14.80;96.70;;;;;;5082356;28;20048;-81
2022/04/22 07:49:29;;;;;;;0.85;0.20;;;14.80;96.70;;;;;;5084612;28;20043;-81
2022/04/22 07:51:58;;;;;;;1.05;0.10;;;14.80;96.70;;;;;;5084234;28;20040;-82
2022/04/22 07:54:28;;;;;;;1.05;0.20;;;14.90;96.70;;;;;;5085375;28;20902;-80
2022/04/22 07:56:57;;;;;;;0.65;0.20;;;14.90;96.70;;;;;;5088269;28;20048;-83
2022/04/22 07:59:28;;;;;;;0.30;0.15;;;14.80;96.70;;;;;;5085017;28;20036;-83
2022/04/22 08:01:59;;;;;;;0.15;0.10;;;14.80;96.70;;;;;;5081218;28;20622;-84
2022/04/22 08:04:28;;;;;;;0.52;0.20;;;14.90;96.70;;;;;;5087997;28;20051;-87
2022/04/22 08:06:56;;;;;;;2.03;0.10;;;14.90;96.70;;;;;;5085592;28;20539;-83
2022/04/22 08:09:46;;;;;;;2.45;0.13;;;15.00;96.70;;;;;;5082923;28;20047;-85
2022/04/22 08:12:15;;;;;;;0.20;0.10;;;15.20;96.70;;;;;;5086329;28;20059;-87
2022/04/22 08:14:44;;;;;;;0.55;0.15;;;15.20;96.70;;;;;;5086057;28;20032;-85
2022/04/22 08:17:12;;;;;;;0.40;0.10;;;15.30;96.70;;;;;;5087796;28;20056;-86
2022/04/22 08:19:41;;;;;;;0.20;0.03;;;15.30;96.70;;;;;;5089269;28;20044;-89
2022/04/22 08:22:09;;;;;;;0.13;0.10;;;15.40;96.70;;;;;;5087801;28;20070;-89
2022/04/22 08:24:40;;;;;;;0.20;0.10;;;15.40;96.70;;;;;;5086335;28;20040;-86
2022/04/22 08:27:10;;;;;;;1.15;0.10;;;15.40;96.70;;;;;;5086049;28;20051;-86
2022/04/22 08:29:38;;;;;;;0.30;0.20;;;15.40;96.70;;;;;;5087160;28;20048;-87
2022/04/22 08:32:06;;;;;;;0.60;0.30;;;15.50;96.70;;;;;;5088316;28;20549;-87
2022/04/22 08:34:34;;;;;;;1.10;0.50;;;15.50;96.70;;;;;;5069441;28;20055;-83
2022/04/22 08:37:03;;;;;;;0.65;0.20;;;15.50;96.70;;;;;;5087135;28;20040;-87
2022/04/22 08:39:31;;;;;;;0.70;0.43;;;15.30;96.70;;;;;;5069661;28;20055;-88
2022/04/22 08:42:02;;;;;;;2.22;0.60;;;15.50;96.70;;;;;;5070791;28;20052;-90
2022/04/22 08:44:56;;;;;;;2.03;0.73;;;15.50;96.70;;;;;;5073125;28;20028;-84
2022/04/22 08:50:21;;;;;;;2.40;0.88;;;15.30;96.70;;;;;;5086674;28;20102;-86
2022/04/22 08:52:55;;;;;;;1.98;0.70;;;15.50;96.70;;;;;;5086751;28;20040;-86
2022/04/22 08:55:25;;;;;;;3.58;1.00;;;15.60;96.70;;;;;;5070398;28;20051;-87
2022/04/22 08:57:54;;;;;;;3.90;1.70;;;15.50;96.70;;;;;;5070204;28;20059;-87
2022/04/22 09:00:29;;;;;;;3.22;1.90;;;15.60;96.70;;;;;;5086049;28;20052;-86
2022/04/22 09:02:57;;;;;;;2.63;1.33;;;15.70;96.70;;;;;;5080120;28;20071;-87
2022/04/22 09:05:26;;;;;;;2.70;1.45;;;15.70;96.70;;;;;;5086625;28;20748;-87
2022/04/22 09:07:54;;;;;;;1.70;0.77;;;15.60;96.70;;;;;;5086303;28;20050;-89
2022/04/22 09:10:23;;;;;;;2.00;1.00;;;15.60;96.70;;;;;;5085920;28;20055;-92
2022/04/22 09:12:52;;;;;;;2.05;0.95;;;15.60;96.70;;;;;;5086833;28;20040;-87
2022/04/22 09:15:24;;;;;;;5.85;0.80;;;15.60;96.70;;;;;;5086333;28;20044;-86
2022/04/22 09:17:58;;;;;;;1.85;1.08;;;15.60;96.70;;;;;;5088368;28;20048;-88
2022/04/22 09:20:30;;;;;;;2.90;0.90;;;15.60;96.70;;;;;;5087722;28;20534;-91
2022/04/22 09:22:58;;;;;;;2.35;0.68;;;15.70;96.70;;;;;;5058477;28;20146;-87
2022/04/22 09:25:28;;;;;;;1.65;0.68;;;15.70;96.70;;;;;;5085858;28;20059;-84
2022/04/22 09:28:07;;;;;;;2.80;0.68;;;15.70;96.70;;;;;;5085060;28;20144;-86
2022/04/22 09:30:40;;;;;;;1.88;0.60;;;15.80;96.70;;;;;;5069360;28;20416;-87
2022/04/22 09:33:09;;;;;;;2.08;0.70;;;15.90;96.70;;;;;;5088357;28;20093;-87
2022/04/22 09:44:23;;;;;;;3.03;0.80;;;16.10;96.70;;;;;;5079512;28;20040;-84
2022/04/22 09:47:11;;;;;;;3.47;0.80;;;16.20;96.70;;;;;;5081582;28;20139;-83
2022/04/22 09:49:45;;;;;;;2.92;0.63;;;16.40;96.70;;;;;;5077543;28;20093;-82
2022/04/22 09:52:13;;;;;;;2.53;1.00;;;16.40;96.70;;;;;;5082140;28;20155;-85
2022/04/22 09:54:56;;;;;;;1.83;0.63;;;16.50;96.70;;;;;;5082638;28;20121;-84
2022/04/22 09:57:53;;;;;;;1.90;0.80;;;16.60;96.70;;;;;;5071850;28;20036;-89
2022/04/22 10:00:24;;;;;;;3.08;0.88;;;16.70;96.70;;;;;;5081373;28;20042;-84
2022/04/22 10:02:55;;;;;;;1.73;0.63;;;16.80;96.70;;;;;;5082962;28;20050;-86
2022/04/22 10:05:26;;;;;;;1.92;0.80;;;16.80;96.70;;;;;;5067684;28;20085;-84
2022/04/22 10:07:56;;;;;;;2.35;0.60;;;16.80;96.70;;;;;;5084126;28;20477;-84
2022/04/22 10:10:29;;;;;;;1.67;0.60;;;16.80;96.70;;;;;;5060287;28;20040;-85
2022/04/22 10:13:01;;;;;;;2.90;0.70;;;16.60;96.70;;;;;;5082651;28;20055;-83
2022/04/22 10:15:33;;;;;;;1.48;0.45;;;16.60;96.70;;;;;;5080665;28;20053;-83
2022/04/22 10:18:03;;;;;;;2.05;0.70;;;16.70;96.70;;;;;;5060693;28;20539;-83
2022/04/22 10:20:32;;;;;;;2.35;0.70;;;16.70;96.70;;;;;;5083979;28;20685;-82
2022/04/22 10:23:01;;;;;;;2.55;0.73;;;16.70;96.70;;;;;;5082148;28;20131;-84
2022/04/22 10:25:30;;;;;;;2.75;0.40;;;16.70;96.70;;;;;;5087663;28;20037;-86
2022/04/22 10:28:01;;;;;;;1.35;0.45;;;16.90;96.70;;;;;;5086156;28;20120;-81
2022/04/22 10:30:31;;;;;;;1.73;0.50;;;17.00;96.70;;;;;;5086289;28;20515;-82
2022/04/22 10:33:03;;;;;;;1.33;0.68;;;16.90;96.70;;;;;;5083992;28;20062;-81
2022/04/22 10:35:41;;;;;;;1.65;0.50;;;16.90;96.70;;;;;;5084456;28;20048;-81
2022/04/22 10:38:33;;;;;;;0.57;0.30;;;17.00;96.70;;;;;;5083885;28;20129;-80
2022/04/22 10:41:02;;;;;;;1.10;0.40;;;17.00;96.70;;;;;;5076887;28;20044;-80
2022/04/22 10:43:31;;;;;;;2.70;0.40;;;16.80;96.70;;;;;;5067190;28;20055;-81
2022/04/22 10:49:12;;;;;;;1.40;0.60;;;16.60;96.70;;;;;;5085573;28;20135;-84
2022/04/22 10:52:02;;;;;;;1.73;1.20;;;16.50;96.70;;;;;;5080309;28;20471;-83
2022/04/22 10:55:08;;;;;;;2.03;1.23;;;16.50;96.70;;;;;;5083978;28;20105;-85
2022/04/22 10:57:39;;;;;;;1.50;1.20;;;16.40;96.70;;;;;;5084154;28;20785;-86
2022/04/22 11:00:28;;;;;;;1.95;1.20;;;16.40;96.70;;;;;;5067774;28;20058;-84
2022/04/22 11:03:04;;;;;;;1.58;0.90;;;16.30;96.70;;;;;;5086826;28;20052;-85
2022/04/22 11:05:37;;;;;;;1.58;1.00;;;16.50;96.70;;;;;;5069345;28;20697;-82
2022/04/22 11:08:17;;;;;;;2.35;1.27;;;16.30;96.70;;;;;;5067224;28;20143;-88
2022/04/22 11:11:08;;;;;;;1.95;1.00;;;16.40;96.70;;;;;;5086161;28;20051;-83
2022/04/22 11:13:41;;;;;;;1.73;0.90;;;16.40;96.70;;;;;;5084107;28;20501;-82
2022/04/22 11:16:14;;;;;;;2.10;1.30;;;16.50;96.70;;;;;;5084918;28;20127;-82
2022/04/22 11:18:43;;;;;;;1.33;0.65;;;16.50;96.70;;;;;;5084462;28;20166;-83
2022/04/22 11:21:17;;;;;;;1.58;0.70;;;16.40;96.70;;;;;;5083737;28;20113;-81
2022/04/22 11:23:58;;;;;;;1.45;0.40;;;16.50;96.70;;;;;;5083093;28;20561;-84
2022/04/22 11:26:36;;;;;;;1.05;0.60;;;16.50;96.70;;;;;;5084291;28;20120;-81
2022/04/22 11:29:07;;;;;;;1.52;0.40;;;16.60;96.70;;;;;;5080213;28;20044;-82
2022/04/22 11:31:36;;;;;;;0.85;0.30;;;16.60;96.70;;;;;;5070331;28;21296;-82
2022/04/22 11:34:07;;;;;;;0.57;0.40;;;16.50;96.70;;;;;;5081606;28;20556;-83
2022/04/22 11:36:46;;;;;;;0.77;0.50;;;16.40;96.70;;;;;;5081443;28;20507;-81
2022/04/22 11:39:17;;;;;;;0.73;0.32;;;16.40;96.70;;;;;;5084512;28;20554;-81
2022/04/22 11:41:53;;;;;;;0.90;0.30;;;16.40;96.70;;;;;;5066218;28;20134;-81
2022/04/22 11:44:21;;;;;;;0.40;0.20;;;16.40;96.70;;;;;;5085681;28;20044;-81
2022/04/22 11:46:50;;;;;;;0.57;0.20;;;16.50;96.70;;;;;;5083208;28;20409;-81
2022/04/22 11:49:19;;;;;;;0.57;0.25;;;16.40;96.70;;;;;;5083011;28;20048;-81
2022/04/22 11:51:54;;;;;;;1.08;0.28;;;16.30;96.70;;;;;;5082962;28;20047;-84
2022/04/22 11:54:24;;;;;;;0.52;0.20;;;16.30;96.70;;;;;;5087873;28;20167;-87
2022/04/22 11:56:53;;;;;;;0.57;0.30;;;16.20;96.70;;;;;;5085752;28;20047;-85
2022/04/22 11:59:22;;;;;;;0.40;0.20;;;16.30;96.70;;;;;;5084454;28;20749;-81
2022/04/22 12:05:32;;;;;;;0.20;0.10;;;16.30;96.70;;;;;;5079107;28;20036;-82
2022/04/22 12:10:18;;;;;;;0.60;0.28;;;16.40;96.70;;;;;;5082071;28;20135;-82
2022/04/22 12:12:50;;;;;;;0.68;0.32;;;16.40;96.70;;;;;;5085241;28;20043;-81
2022/04/22 12:15:21;;;;;;;0.45;0.20;;;16.20;96.70;;;;;;5083919;28;20051;-82
2022/04/22 12:17:57;;;;;;;0.30;0.10;;;16.30;96.70;;;;;;5066921;28;20389;-81
2022/04/22 12:20:26;;;;;;;0.73;0.28;;;16.20;96.70;;;;;;5082464;28;20052;-82
2022/04/22 12:22:56;;;;;;;0.88;0.30;;;16.40;96.70;;;;;;5082955;28;20044;-81
2022/04/22 12:25:30;;;;;;;0.90;0.38;;;16.50;96.70;;;;;;5082792;28;20048;-80
2022/04/22 12:28:07;;;;;;;0.82;0.20;;;16.50;96.70;;;;;;5083207;28;20047;-81
2022/04/22 12:30:43;;;;;;;0.57;0.40;;;16.30;96.70;;;;;;5087476;28;20139;-82
2022/04/22 12:33:18;;;;;;;0.25;0.15;;;16.40;96.70;;;;;;5066858;28;20994;-80
2022/04/22 12:35:46;;;;;;;0.35;0.15;;;16.30;96.70;;;;;;5077953;28;20125;-81
2022/04/22 12:38:17;;;;;;;0.30;0.20;;;16.20;96.70;;;;;;5083959;28;20094;-81
2022/04/22 12:40:47;;;;;;;0.30;0.20;;;16.20;96.70;;;;;;5067766;28;20048;-82
2022/04/22 12:43:28;;;;;;;0.57;0.25;;;16.10;96.70;;;;;;5086182;28;20131;-80
2022/04/22 12:52:12;;;;;;;1.60;0.98;;;15.90;96.70;;;;;;5078389;28;20401;-82
2022/04/22 12:54:45;;;;;;;0.85;0.70;;;16.10;96.70;;;;;;5082828;28;20079;-81
2022/04/22 12:57:19;;;;;;;1.35;0.30;;;16.00;96.70;;;;;;5083594;28;20052;-81
2022/04/22 12:59:53;;;;;;;0.90;0.90;;;16.00;96.70;;;;;;5066562;28;20421;-82
2022/04/22 13:02:28;;;;;;;1.58;1.48;;;16.10;96.70;;;;;;5083884;28;20063;-81
2022/04/22 13:04:59;;;;;;;1.13;0.47;;;16.00;96.70;;;;;;5084072;28;20052;-81
2022/04/22 13:07:41;;;;;;;15.68;12.05;;;15.90;96.70;;;;;;5075470;28;20052;-82
2022/04/22 13:10:12;;;;;;;2.75;2.05;;;15.70;96.70;;;;;;5079822;28;20571;-82
2022/04/22 13:12:41;;;;;;;7.03;5.65;;;15.70;96.70;;;;;;5073361;28;20035;-82
2022/04/22 13:15:18;;;;;;;24.00;14.98;;;15.70;96.70;;;;;;5081919;28;20527;-83
2022/04/22 13:17:49;;;;;;;3.88;2.95;;;15.80;96.70;;;;;;5088532;28;20073;-82
2022/04/22 13:20:18;;;;;;;2.88;0.70;;;15.70;96.70;;;;;;5082518;28;20417;-82
2022/04/22 13:22:48;;;;;;;5.03;4.53;;;15.80;96.70;;;;;;5084605;28;20122;-82
2022/04/22 13:25:18;;;;;;;12.75;10.80;;;15.80;96.70;;;;;;5080953;28;20075;-81
2022/04/22 13:27:46;;;;;;;2.05;1.52;;;15.70;96.70;;;;;;5086046;28;20067;-82
2022/04/22 13:30:15;;;;;;;5.70;3.38;;;15.80;96.70;;;;;;5081618;28;20134;-81
2022/04/22 13:32:44;;;;;;;3.20;2.65;;;15.70;96.70;;;;;;5083581;28;20059;-82
2022/04/22 13:35:13;;;;;;;1.38;0.70;;;15.70;96.70;;;;;;5082383;28;20044;-82
2022/04/22 13:37:41;;;;;;;1.60;0.93;;;15.70;96.70;;;;;;5087036;28;20048;-81
2022/04/22 13:40:10;;;;;;;15.68;14.40;;;15.70;96.70;;;;;;5065720;28;20424;-84
2022/04/22 13:42:40;;;;;;;6.80;6.20;;;15.70;96.70;;;;;;5084993;28;20059;-85
2022/04/22 13:53:28;;;;;;;1.77;0.70;;;15.70;96.70;;;;;;5080592;28;20048;-81
2022/04/22 13:55:56;;;;;;;2.42;1.58;;;15.70;96.70;;;;;;5084040;28;20286;-82
2022/04/22 13:58:26;;;;;;;89.28;51.17;;;15.80;96.70;;;;;;5083188;28;20051;-81
2022/04/22 14:00:54;;;;;;;5.10;2.65;;;15.80;96.70;;;;;;5092032;28;20036;-81
2022/04/22 14:03:22;;;;;;;3.00;1.60;;;15.70;96.70;;;;;;5085982;28;20445;-82
2022/04/22 14:05:51;;;;;;;1.77;0.98;;;15.60;96.70;;;;;;5088058;28;20054;-82
2022/04/22 14:08:19;;;;;;;6.38;5.80;;;15.50;96.70;;;;;;5085879;28;20381;-84
2022/04/22 14:10:47;;;;;;;0.70;0.60;;;15.50;96.70;;;;;;5087836;28;20494;-83